sensor_id;sensor_type;location;lat;lon;timestamp;temperature;humidity
52743;DHT22;55583;53.012;6.556;2022-09-09T03:11:24;14.10;99.90
52743;DHT22;55583;53.012;6.556;2022-09-09T03:13:49;14.20;99.90
52743;DHT22;55583;53.012;6.556;2022-09-09T03:16:15;14.20;99.90
52743;DHT22;55583;53.012;6.556;2022-09-09T03:18:41;14.20;99.90
52743;DHT22;55583;53.012;6.556;2022-09-09T03:21:07;14.20;99.90
52743;DHT22;55583;53.012;6.556;2022-09-09T03:23:33;14.20;99.90
52743;DHT22;55583;53.012;6.556;2022-09-09T03:25:59;14.20;99.90
52743;DHT22;55583;53.012;6.556;2022-09-09T03:28:25;14.20;99.90
52743;DHT22;55583;53.012;6.556;2022-09-09T03:31:04;14.30;99.90
52743;DHT22;55583;53.012;6.556;2022-09-09T03:33:30;14.30;99.90
52743;DHT22;55583;53.012;6.556;2022-09-09T03:35:57;14.30;99.90
52743;DHT22;55583;53.012;6.556;2022-09-09T03:38:24;14.20;99.90
52743;DHT22;55583;53.012;6.556;2022-09-09T03:40:51;14.20;99.90
52743;DHT22;55583;53.012;6.556;2022-09-09T03:43:18;14.20;99.90
52743;DHT22;55583;53.012;6.556;2022-09-09T03:45:46;14.30;99.90
52743;DHT22;55583;53.012;6.556;2022-09-09T03:48:16;14.30;99.90
52743;DHT22;55583;53.012;6.556;2022-09-09T03:50:49;14.30;99.90
52743;DHT22;55583;53.012;6.556;2022-09-09T03:53:17;14.30;99.90
52743;DHT22;55583;53.012;6.556;2022-09-09T03:55:46;14.20;99.90
52743;DHT22;55583;53.012;6.556;2022-09-09T03:58:16;14.20;99.90
52743;DHT22;55583;53.012;6.556;2022-09-09T04:00:52;14.20;99.90
52743;DHT22;55583;53.012;6.556;2022-09-09T04:03:18;14.30;99.90
52743;DHT22;55583;53.012;6.556;2022-09-09T04:05:44;14.20;99.90
52743;DHT22;55583;53.012;6.556;2022-09-09T04:08:10;14.20;99.90
52743;DHT22;55583;53.012;6.556;2022-09-09T04:10:36;14.20;99.90
52743;DHT22;55583;53.012;6.556;2022-09-09T04:13:06;14.20;99.90
52743;DHT22;55583;53.012;6.556;2022-09-09T04:15:32;14.20;99.90
52743;DHT22;55583;53.012;6.556;2022-09-09T04:17:58;14.20;99.90
52743;DHT22;55583;53.012;6.556;2022-09-09T04:20:24;14.20;99.90
52743;DHT22;55583;53.012;6.556;2022-09-09T04:22:49;14.40;99.90
52743;DHT22;55583;53.012;6.556;2022-09-09T04:25:15;14.20;99.90
52743;DHT22;55583;53.012;6.556;2022-09-09T04:27:41;14.20;99.90
52743;DHT22;55583;53.012;6.556;2022-09-09T04:30:08;14.10;99.90
52743;DHT22;55583;53.012;6.556;2022-09-09T04:32:34;14.10;99.90
52743;DHT22;55583;53.012;6.556;2022-09-09T04:35:01;14.00;99.90
52743;DHT22;55583;53.012;6.556;2022-09-09T04:37:26;14.10;99.90
52743;DHT22;55583;53.012;6.556;2022-09-09T04:39:52;14.10;99.90
52743;DHT22;55583;53.012;6.556;2022-09-09T04:42:17;14.10;99.90
52743;DHT22;55583;53.012;6.556;2022-09-09T04:44:44;14.10;99.90
52743;DHT22;55583;53.012;6.556;2022-09-09T04:47:10;14.10;99.90
52743;DHT22;55583;53.012;6.556;2022-09-09T04:49:36;14.10;99.90
52743;DHT22;55583;53.012;6.556;2022-09-09T04:52:03;14.10;99.90
52743;DHT22;55583;53.012;6.556;2022-09-09T04:54:29;14.10;99.90
52743;DHT22;55583;53.012;6.556;2022-09-09T04:56:55;14.10;99.90
52743;DHT22;55583;53.012;6.556;2022-09-09T04:59:21;14.10;99.90
52743;DHT22;55583;53.012;6.556;2022-09-09T05:01:48;14.10;99.90
52743;DHT22;55583;53.012;6.556;2022-09-09T05:04:14;14.10;99.90
52743;DHT22;55583;53.012;6.556;2022-09-09T05:06:41;14.20;99.90
52743;DHT22;55583;53.012;6.556;2022-09-09T05:09:08;14.10;99.90
52743;DHT22;55583;53.012;6.556;2022-09-09T05:11:34;14.00;99.90
52743;DHT22;55583;53.012;6.556;2022-09-09T05:14:03;14.00;99.90
52743;DHT22;55583;53.012;6.556;2022-09-09T05:16:30;14.00;99.90
52743;DHT22;55583;53.012;6.556;2022-09-09T05:18:56;14.00;99.90
52743;DHT22;55583;53.012;6.556;2022-09-09T05:21:23;14.00;99.90
52743;DHT22;55583;53.012;6.556;2022-09-09T05:23:51;14.00;99.90
52743;DHT22;55583;53.012;6.556;2022-09-09T05:26:19;14.00;99.90
52743;DHT22;55583;53.012;6.556;2022-09-09T05:28:45;14.00;99.90
52743;DHT22;55583;53.012;6.556;2022-09-09T05:31:13;14.00;99.90
52743;DHT22;55583;53.012;6.556;2022-09-09T05:33:44;14.10;99.90
52743;DHT22;55583;53.012;6.556;2022-09-09T05:36:13;14.00;99.90
52743;DHT22;55583;53.012;6.556;2022-09-09T05:38:40;14.00;99.90
52743;DHT22;55583;53.012;6.556;2022-09-09T05:41:06;14.00;99.90
52743;DHT22;55583;53.012;6.556;2022-09-09T05:43:32;14.00;99.90
52743;DHT22;55583;53.012;6.556;2022-09-09T05:46:00;14.00;99.90
52743;DHT22;55583;53.012;6.556;2022-09-09T05:48:44;13.90;99.90
52743;DHT22;55583;53.012;6.556;2022-09-09T05:51:14;14.00;99.90
52743;DHT22;55583;53.012;6.556;2022-09-09T05:53:43;14.00;99.90
52743;DHT22;55583;53.012;6.556;2022-09-09T05:58:43;14.00;99.90
52743;DHT22;55583;53.012;6.556;2022-09-09T06:01:11;14.10;99.90
52743;DHT22;55583;53.012;6.556;2022-09-09T06:03:39;14.00;99.90
52743;DHT22;55583;53.012;6.556;2022-09-09T06:06:10;14.00;99.90
52743;DHT22;55583;53.012;6.556;2022-09-09T06:08:41;14.10;99.90
52743;DHT22;55583;53.012;6.556;2022-09-09T06:11:30;14.20;99.90
52743;DHT22;55583;53.012;6.556;2022-09-09T06:13:57;14.10;99.90
52743;DHT22;55583;53.012;6.556;2022-09-09T06:16:25;14.10;99.90
52743;DHT22;55583;53.012;6.556;2022-09-09T06:18:52;14.10;99.90
52743;DHT22;55583;53.012;6.556;2022-09-09T06:21:25;14.20;99.90
52743;DHT22;55583;53.012;6.556;2022-09-09T06:23:51;14.10;99.90
52743;DHT22;55583;53.012;6.556;2022-09-09T06:26:21;14.10;99.90
52743;DHT22;55583;53.012;6.556;2022-09-09T06:28:49;14.10;99.90
52743;DHT22;55583;53.012;6.556;2022-09-09T06:31:17;14.20;99.90
52743;DHT22;55583;53.012;6.556;2022-09-09T06:33:43;14.20;99.90
52743;DHT22;55583;53.012;6.556;2022-09-09T06:36:15;14.20;99.90
52743;DHT22;55583;53.012;6.556;2022-09-09T06:38:45;14.30;99.90
52743;DHT22;55583;53.012;6.556;2022-09-09T06:41:13;14.40;99.90
52743;DHT22;55583;53.012;6.556;2022-09-09T06:43:39;14.50;99.90
52743;DHT22;55583;53.012;6.556;2022-09-09T06:48:30;14.40;99.90
52743;DHT22;55583;53.012;6.556;2022-09-09T06:51:14;14.50;99.90
52743;DHT22;55583;53.012;6.556;2022-09-09T06:53:41;14.50;99.90
52743;DHT22;55583;53.012;6.556;2022-09-09T06:58:45;14.50;99.90
52743;DHT22;55583;53.012;6.556;2022-09-09T07:01:24;14.60;99.90
52743;DHT22;55583;53.012;6.556;2022-09-09T07:03:53;14.60;99.90
52743;DHT22;55583;53.012;6.556;2022-09-09T07:06:24;14.90;99.90
52743;DHT22;55583;53.012;6.556;2022-09-09T07:08:55;14.60;99.90
52743;DHT22;55583;53.012;6.556;2022-09-09T07:11:23;14.70;99.90
52743;DHT22;55583;53.012;6.556;2022-09-09T07:13:49;14.70;99.90
52743;DHT22;55583;53.012;6.556;2022-09-09T07:16:19;14.90;99.90
52743;DHT22;55583;53.012;6.556;2022-09-09T07:18:46;14.90;99.90
52743;DHT22;55583;53.012;6.556;2022-09-09T07:21:14;14.80;99.90
52743;DHT22;55583;53.012;6.556;2022-09-09T07:23:40;14.80;99.90
52743;DHT22;55583;53.012;6.556;2022-09-09T07:26:11;15.00;99.90
52743;DHT22;55583;53.012;6.556;2022-09-09T07:28:37;15.00;99.90
52743;DHT22;55583;53.012;6.556;2022-09-09T07:31:03;15.10;99.90
52743;DHT22;55583;53.012;6.556;2022-09-09T07:33:30;15.20;99.90
52743;DHT22;55583;53.012;6.556;2022-09-09T07:36:08;15.30;99.90
52743;DHT22;55583;53.012;6.556;2022-09-09T07:38:41;15.30;99.90
52743;DHT22;55583;53.012;6.556;2022-09-09T07:41:10;15.40;99.90
52743;DHT22;55583;53.012;6.556;2022-09-09T07:43:41;15.40;99.90
52743;DHT22;55583;53.012;6.556;2022-09-09T07:46:08;15.50;99.90
52743;DHT22;55583;53.012;6.556;2022-09-09T07:48:34;15.50;99.90
52743;DHT22;55583;53.012;6.556;2022-09-09T07:51:08;15.60;99.90
52743;DHT22;55583;53.012;6.556;2022-09-09T07:53:35;15.60;99.90
52743;DHT22;55583;53.012;6.556;2022-09-09T07:56:13;15.60;99.90
52743;DHT22;55583;53.012;6.556;2022-09-09T07:58:40;15.60;99.90
52743;DHT22;55583;53.012;6.556;2022-09-09T08:01:10;15.50;99.90
52743;DHT22;55583;53.012;6.556;2022-09-09T08:03:37;15.50;99.90
52743;DHT22;55583;53.012;6.556;2022-09-09T08:06:04;15.60;99.90
52743;DHT22;55583;53.012;6.556;2022-09-09T08:08:31;15.60;99.90
52743;DHT22;55583;53.012;6.556;2022-09-09T08:11:06;15.60;99.90
52743;DHT22;55583;53.012;6.556;2022-09-09T08:13:36;15.80;99.90
52743;DHT22;55583;53.012;6.556;2022-09-09T08:16:10;15.90;99.90
52743;DHT22;55583;53.012;6.556;2022-09-09T08:18:37;15.90;99.90
52743;DHT22;55583;53.012;6.556;2022-09-09T08:21:12;15.90;99.90
52743;DHT22;55583;53.012;6.556;2022-09-09T08:23:42;16.00;99.90
52743;DHT22;55583;53.012;6.556;2022-09-09T08:26:12;16.10;99.90
52743;DHT22;55583;53.012;6.556;2022-09-09T08:28:39;16.20;99.90
52743;DHT22;55583;53.012;6.556;2022-09-09T08:31:16;16.10;99.90
52743;DHT22;55583;53.012;6.556;2022-09-09T08:33:43;16.20;99.90
52743;DHT22;55583;53.012;6.556;2022-09-09T08:36:23;16.20;99.90
52743;DHT22;55583;53.012;6.556;2022-09-09T08:38:55;16.20;99.90
52743;DHT22;55583;53.012;6.556;2022-09-09T08:52:20;17.50;99.90
52743;DHT22;55583;53.012;6.556;2022-09-09T08:54:47;17.60;99.90
52743;DHT22;55583;53.012;6.556;2022-09-09T08:57:21;17.60;99.90
52743;DHT22;55583;53.012;6.556;2022-09-09T08:59:52;17.60;99.90
52743;DHT22;55583;53.012;6.556;2022-09-09T09:02:42;17.70;99.90
52743;DHT22;55583;53.012;6.556;2022-09-09T09:05:23;17.50;99.90
52743;DHT22;55583;53.012;6.556;2022-09-09T09:10:47;17.70;99.90
52743;DHT22;55583;53.012;6.556;2022-09-09T09:16:00;18.00;99.90
52743;DHT22;55583;53.012;6.556;2022-09-09T09:18:27;17.70;99.90
52743;DHT22;55583;53.012;6.556;2022-09-09T09:20:58;17.80;99.90
52743;DHT22;55583;53.012;6.556;2022-09-09T09:23:38;17.80;99.90
52743;DHT22;55583;53.012;6.556;2022-09-09T09:26:07;18.00;99.90
52743;DHT22;55583;53.012;6.556;2022-09-09T09:28:35;18.00;99.90
52743;DHT22;55583;53.012;6.556;2022-09-09T09:31:06;18.00;99.90
52743;DHT22;55583;53.012;6.556;2022-09-09T09:33:55;18.10;99.90
52743;DHT22;55583;53.012;6.556;2022-09-09T09:36:33;18.20;99.90
52743;DHT22;55583;53.012;6.556;2022-09-09T09:39:00;18.30;99.90
52743;DHT22;55583;53.012;6.556;2022-09-09T09:43:55;18.90;99.90
52743;DHT22;55583;53.012;6.556;2022-09-09T09:46:23;19.50;99.90
52743;DHT22;55583;53.012;6.556;2022-09-09T09:49:04;20.00;99.90
52743;DHT22;55583;53.012;6.556;2022-09-09T09:51:32;20.60;99.90
52743;DHT22;55583;53.012;6.556;2022-09-09T09:56:35;21.10;99.90
52743;DHT22;55583;53.012;6.556;2022-09-09T09:59:01;20.90;99.90
52743;DHT22;55583;53.012;6.556;2022-09-09T10:01:28;20.70;99.90
52743;DHT22;55583;53.012;6.556;2022-09-09T10:04:00;20.30;99.90
52743;DHT22;55583;53.012;6.556;2022-09-09T10:06:31;19.60;99.90
52743;DHT22;55583;53.012;6.556;2022-09-09T10:08:59;19.30;99.90
52743;DHT22;55583;53.012;6.556;2022-09-09T10:11:46;19.30;99.90
52743;DHT22;55583;53.012;6.556;2022-09-09T10:14:21;19.30;99.90
52743;DHT22;55583;53.012;6.556;2022-09-09T10:17:02;19.00;99.90
52743;DHT22;55583;53.012;6.556;2022-09-09T10:19:35;19.00;99.90
52743;DHT22;55583;53.012;6.556;2022-09-09T10:30:23;23.50;99.90
52743;DHT22;55583;53.012;6.556;2022-09-09T10:36:11;23.60;99.90
52743;DHT22;55583;53.012;6.556;2022-09-09T10:38:36;25.10;99.90
52743;DHT22;55583;53.012;6.556;2022-09-09T10:41:19;26.70;99.90
52743;DHT22;55583;53.012;6.556;2022-09-09T10:44:02;26.60;99.90
52743;DHT22;55583;53.012;6.556;2022-09-09T10:54:56;23.40;99.90
52743;DHT22;55583;53.012;6.556;2022-09-09T10:57:36;24.10;99.90
52743;DHT22;55583;53.012;6.556;2022-09-09T11:00:13;25.50;99.90
52743;DHT22;55583;53.012;6.556;2022-09-09T11:02:41;26.00;99.90
52743;DHT22;55583;53.012;6.556;2022-09-09T11:05:15;25.60;99.90
52743;DHT22;55583;53.012;6.556;2022-09-09T11:13:01;27.30;94.40
52743;DHT22;55583;53.012;6.556;2022-09-09T11:15:39;26.90;98.20
52743;DHT22;55583;53.012;6.556;2022-09-09T11:18:10;26.80;95.60
52743;DHT22;55583;53.012;6.556;2022-09-09T11:20:38;26.40;99.90
52743;DHT22;55583;53.012;6.556;2022-09-09T11:23:11;26.20;99.90
52743;DHT22;55583;53.012;6.556;2022-09-09T11:26:07;25.70;99.90
52743;DHT22;55583;53.012;6.556;2022-09-09T11:28:56;25.20;93.10
52743;DHT22;55583;53.012;6.556;2022-09-09T11:32:09;24.90;92.80
52743;DHT22;55583;53.012;6.556;2022-09-09T11:34:54;24.50;92.20
52743;DHT22;55583;53.012;6.556;2022-09-09T11:40:23;23.70;99.40
52743;DHT22;55583;53.012;6.556;2022-09-09T11:42:49;23.50;99.90
52743;DHT22;55583;53.012;6.556;2022-09-09T11:45:27;23.30;99.90
52743;DHT22;55583;53.012;6.556;2022-09-09T11:47:59;23.20;99.90
52743;DHT22;55583;53.012;6.556;2022-09-09T11:53:02;23.10;99.90
52743;DHT22;55583;53.012;6.556;2022-09-09T11:55:31;23.10;99.90
52743;DHT22;55583;53.012;6.556;2022-09-09T11:57:59;23.00;99.90
52743;DHT22;55583;53.012;6.556;2022-09-09T12:00:41;22.80;99.90
52743;DHT22;55583;53.012;6.556;2022-09-09T12:03:49;22.70;99.90
52743;DHT22;55583;53.012;6.556;2022-09-09T12:06:18;22.40;99.80
52743;DHT22;55583;53.012;6.556;2022-09-09T12:08:49;21.90;99.90
52743;DHT22;55583;53.012;6.556;2022-09-09T12:11:29;20.90;99.90
52743;DHT22;55583;53.012;6.556;2022-09-09T12:13:57;20.20;99.90
52743;DHT22;55583;53.012;6.556;2022-09-09T12:16:34;19.90;99.90
52743;DHT22;55583;53.012;6.556;2022-09-09T12:19:06;19.70;99.90
52743;DHT22;55583;53.012;6.556;2022-09-09T12:24:13;20.30;99.90
52743;DHT22;55583;53.012;6.556;2022-09-09T12:27:05;20.90;99.90
52743;DHT22;55583;53.012;6.556;2022-09-09T12:29:43;21.10;99.90
52743;DHT22;55583;53.012;6.556;2022-09-09T12:32:22;21.00;99.90
52743;DHT22;55583;53.012;6.556;2022-09-09T12:34:55;21.50;99.90
52743;DHT22;55583;53.012;6.556;2022-09-09T12:40:01;22.80;99.90
52743;DHT22;55583;53.012;6.556;2022-09-09T12:42:28;23.00;99.90
52743;DHT22;55583;53.012;6.556;2022-09-09T12:45:00;23.10;99.90
52743;DHT22;55583;53.012;6.556;2022-09-09T12:50:22;23.30;99.90
52743;DHT22;55583;53.012;6.556;2022-09-09T12:52:50;23.10;99.90
52743;DHT22;55583;53.012;6.556;2022-09-09T12:55:21;22.80;99.90
52743;DHT22;55583;53.012;6.556;2022-09-09T12:57:51;22.60;99.90
52743;DHT22;55583;53.012;6.556;2022-09-09T13:00:22;22.70;99.90
52743;DHT22;55583;53.012;6.556;2022-09-09T13:02:49;23.50;99.90
52743;DHT22;55583;53.012;6.556;2022-09-09T13:07:46;24.60;99.90
52743;DHT22;55583;53.012;6.556;2022-09-09T13:10:14;24.90;99.90
52743;DHT22;55583;53.012;6.556;2022-09-09T13:12:42;24.70;99.90
52743;DHT22;55583;53.012;6.556;2022-09-09T13:15:16;24.50;99.80
52743;DHT22;55583;53.012;6.556;2022-09-09T13:17:54;24.00;96.20
52743;DHT22;55583;53.012;6.556;2022-09-09T13:20:21;23.40;99.90
52743;DHT22;55583;53.012;6.556;2022-09-09T13:22:48;23.00;99.90
52743;DHT22;55583;53.012;6.556;2022-09-09T13:25:28;23.10;99.90
52743;DHT22;55583;53.012;6.556;2022-09-09T13:28:02;23.40;99.90
52743;DHT22;55583;53.012;6.556;2022-09-09T13:30:36;23.60;99.90
52743;DHT22;55583;53.012;6.556;2022-09-09T13:35:54;24.00;99.90
52743;DHT22;55583;53.012;6.556;2022-09-09T13:38:20;24.30;96.00
52743;DHT22;55583;53.012;6.556;2022-09-09T13:41:03;24.50;99.90
52743;DHT22;55583;53.012;6.556;2022-09-09T13:43:34;24.50;97.90
52743;DHT22;55583;53.012;6.556;2022-09-09T13:46:04;24.20;97.30
52743;DHT22;55583;53.012;6.556;2022-09-09T13:48:30;23.90;96.40
52743;DHT22;55583;53.012;6.556;2022-09-09T13:51:04;23.80;99.90
52743;DHT22;55583;53.012;6.556;2022-09-09T13:53:30;23.50;99.90
52743;DHT22;55583;53.012;6.556;2022-09-09T13:55:57;23.20;99.90
52743;DHT22;55583;53.012;6.556;2022-09-09T13:58:23;23.30;99.90
52743;DHT22;55583;53.012;6.556;2022-09-09T14:00:51;23.70;99.90
52743;DHT22;55583;53.012;6.556;2022-09-09T14:03:17;24.10;99.20
52743;DHT22;55583;53.012;6.556;2022-09-09T14:05:44;24.00;94.90
52743;DHT22;55583;53.012;6.556;2022-09-09T14:08:19;23.90;96.50
52743;DHT22;55583;53.012;6.556;2022-09-09T14:10:46;23.60;91.70
52743;DHT22;55583;53.012;6.556;2022-09-09T14:13:12;22.90;93.90
52743;DHT22;55583;53.012;6.556;2022-09-09T14:15:38;22.50;96.50
52743;DHT22;55583;53.012;6.556;2022-09-09T14:18:04;21.80;99.90
52743;DHT22;55583;53.012;6.556;2022-09-09T14:20:29;21.10;99.90
52743;DHT22;55583;53.012;6.556;2022-09-09T14:22:55;20.60;99.90
52743;DHT22;55583;53.012;6.556;2022-09-09T14:25:24;20.30;99.90
52743;DHT22;55583;53.012;6.556;2022-09-09T14:27:49;20.50;99.90
52743;DHT22;55583;53.012;6.556;2022-09-09T14:30:16;20.90;99.90
52743;DHT22;55583;53.012;6.556;2022-09-09T14:32:42;21.30;99.90
52743;DHT22;55583;53.012;6.556;2022-09-09T14:35:08;21.80;99.90
52743;DHT22;55583;53.012;6.556;2022-09-09T14:37:33;22.40;99.90
52743;DHT22;55583;53.012;6.556;2022-09-09T14:39:59;22.80;99.90
52743;DHT22;55583;53.012;6.556;2022-09-09T14:42:25;23.20;99.90
52743;DHT22;55583;53.012;6.556;2022-09-09T14:44:52;23.30;99.90
52743;DHT22;55583;53.012;6.556;2022-09-09T14:47:17;23.50;99.90
52743;DHT22;55583;53.012;6.556;2022-09-09T14:49:43;23.50;99.90
52743;DHT22;55583;53.012;6.556;2022-09-09T14:52:08;23.60;99.90
52743;DHT22;55583;53.012;6.556;2022-09-09T14:54:35;23.60;99.90
52743;DHT22;55583;53.012;6.556;2022-09-09T14:57:00;23.60;99.90
52743;DHT22;55583;53.012;6.556;2022-09-09T14:59:26;23.30;99.90
52743;DHT22;55583;53.012;6.556;2022-09-09T15:01:52;23.10;99.20
52743;DHT22;55583;53.012;6.556;2022-09-09T15:04:18;23.00;99.90
52743;DHT22;55583;53.012;6.556;2022-09-09T15:06:45;22.90;97.90
52743;DHT22;55583;53.012;6.556;2022-09-09T15:09:13;23.00;99.30
52743;DHT22;55583;53.012;6.556;2022-09-09T15:11:39;23.20;99.90
52743;DHT22;55583;53.012;6.556;2022-09-09T15:14:07;23.20;99.50
52743;DHT22;55583;53.012;6.556;2022-09-09T15:16:33;23.00;97.30
52743;DHT22;55583;53.012;6.556;2022-09-09T15:19:00;22.70;96.70
52743;DHT22;55583;53.012;6.556;2022-09-09T15:21:29;22.40;99.90
52743;DHT22;55583;53.012;6.556;2022-09-09T15:23:56;22.40;99.90
52743;DHT22;55583;53.012;6.556;2022-09-09T15:26:22;22.50;99.90
52743;DHT22;55583;53.012;6.556;2022-09-09T15:28:49;22.60;99.00
52743;DHT22;55583;53.012;6.556;2022-09-09T15:31:26;22.80;96.70
52743;DHT22;55583;53.012;6.556;2022-09-09T15:34:11;22.90;94.00
52743;DHT22;55583;53.012;6.556;2022-09-09T15:36:41;23.10;90.70
52743;DHT22;55583;53.012;6.556;2022-09-09T15:39:09;23.20;95.00
52743;DHT22;55583;53.012;6.556;2022-09-09T15:41:38;23.40;95.70
52743;DHT22;55583;53.012;6.556;2022-09-09T15:44:05;23.70;96.70
52743;DHT22;55583;53.012;6.556;2022-09-09T15:49:23;23.60;92.80
52743;DHT22;55583;53.012;6.556;2022-09-09T15:51:55;23.30;89.70
52743;DHT22;55583;53.012;6.556;2022-09-09T15:54:24;22.80;94.10
52743;DHT22;55583;53.012;6.556;2022-09-09T15:56:54;22.30;95.10
52743;DHT22;55583;53.012;6.556;2022-09-09T15:59:22;22.00;95.50
52743;DHT22;55583;53.012;6.556;2022-09-09T16:01:48;21.70;97.40
52743;DHT22;55583;53.012;6.556;2022-09-09T16:04:15;21.40;98.70
52743;DHT22;55583;53.012;6.556;2022-09-09T16:06:46;21.20;98.30
52743;DHT22;55583;53.012;6.556;2022-09-09T16:09:12;20.80;98.80
52743;DHT22;55583;53.012;6.556;2022-09-09T16:11:38;20.60;99.90
52743;DHT22;55583;53.012;6.556;2022-09-09T16:14:05;20.50;99.90
52743;DHT22;55583;53.012;6.556;2022-09-09T16:16:31;20.40;99.90
52743;DHT22;55583;53.012;6.556;2022-09-09T16:19:00;20.20;99.90
52743;DHT22;55583;53.012;6.556;2022-09-09T16:21:31;20.20;99.90
52743;DHT22;55583;53.012;6.556;2022-09-09T16:23:59;20.20;99.90
52743;DHT22;55583;53.012;6.556;2022-09-09T16:26:25;20.00;99.90
52743;DHT22;55583;53.012;6.556;2022-09-09T16:28:50;20.00;99.90
52743;DHT22;55583;53.012;6.556;2022-09-09T16:31:21;19.90;99.90
52743;DHT22;55583;53.012;6.556;2022-09-09T16:33:47;19.80;99.90
52743;DHT22;55583;53.012;6.556;2022-09-09T16:36:15;19.70;99.90
52743;DHT22;55583;53.012;6.556;2022-09-09T16:38:42;19.70;99.90
52743;DHT22;55583;53.012;6.556;2022-09-09T16:41:12;19.60;99.90
52743;DHT22;55583;53.012;6.556;2022-09-09T16:43:39;19.50;99.90
52743;DHT22;55583;53.012;6.556;2022-09-09T16:46:16;19.50;99.90
52743;DHT22;55583;53.012;6.556;2022-09-09T16:48:44;19.60;99.90
52743;DHT22;55583;53.012;6.556;2022-09-09T16:51:16;19.60;99.90
52743;DHT22;55583;53.012;6.556;2022-09-09T16:53:42;19.70;99.90
52743;DHT22;55583;53.012;6.556;2022-09-09T16:56:13;19.70;99.90
52743;DHT22;55583;53.012;6.556;2022-09-09T16:58:40;19.60;99.90
52743;DHT22;55583;53.012;6.556;2022-09-09T17:01:06;19.60;99.90
52743;DHT22;55583;53.012;6.556;2022-09-09T17:03:32;19.60;99.90
52743;DHT22;55583;53.012;6.556;2022-09-09T17:05:58;19.50;99.90
52743;DHT22;55583;53.012;6.556;2022-09-09T17:08:31;19.50;99.90
52743;DHT22;55583;53.012;6.556;2022-09-09T17:10:57;19.50;99.90
52743;DHT22;55583;53.012;6.556;2022-09-09T17:13:23;19.50;99.90
52743;DHT22;55583;53.012;6.556;2022-09-09T17:15:49;19.50;99.90
52743;DHT22;55583;53.012;6.556;2022-09-09T17:18:15;19.50;99.90
52743;DHT22;55583;53.012;6.556;2022-09-09T17:20:42;19.50;99.90
52743;DHT22;55583;53.012;6.556;2022-09-09T17:23:10;19.50;99.90
52743;DHT22;55583;53.012;6.556;2022-09-09T17:25:36;19.50;99.90
52743;DHT22;55583;53.012;6.556;2022-09-09T17:28:02;19.40;99.90
52743;DHT22;55583;53.012;6.556;2022-09-09T17:30:35;19.40;99.90
52743;DHT22;55583;53.012;6.556;2022-09-09T17:33:04;19.50;99.90
52743;DHT22;55583;53.012;6.556;2022-09-09T17:35:32;19.30;99.90
52743;DHT22;55583;53.012;6.556;2022-09-09T17:37:58;19.30;99.90
52743;DHT22;55583;53.012;6.556;2022-09-09T17:40:24;19.20;99.90
52743;DHT22;55583;53.012;6.556;2022-09-09T17:42:50;19.20;99.90
52743;DHT22;55583;53.012;6.556;2022-09-09T17:45:15;19.20;99.90
52743;DHT22;55583;53.012;6.556;2022-09-09T17:47:41;19.10;99.90
52743;DHT22;55583;53.012;6.556;2022-09-09T17:50:11;19.10;99.90
52743;DHT22;55583;53.012;6.556;2022-09-09T17:52:38;19.00;99.90
52743;DHT22;55583;53.012;6.556;2022-09-09T17:55:06;19.00;99.90
52743;DHT22;55583;53.012;6.556;2022-09-09T17:57:32;18.90;99.90
52743;DHT22;55583;53.012;6.556;2022-09-09T17:59:58;18.90;99.90
52743;DHT22;55583;53.012;6.556;2022-09-09T18:02:24;18.80;99.90
52743;DHT22;55583;53.012;6.556;2022-09-09T18:04:49;18.80;99.90
52743;DHT22;55583;53.012;6.556;2022-09-09T18:07:15;18.80;99.90
52743;DHT22;55583;53.012;6.556;2022-09-09T18:09:40;18.70;99.90
52743;DHT22;55583;53.012;6.556;2022-09-09T18:12:06;18.70;99.90
52743;DHT22;55583;53.012;6.556;2022-09-09T18:14:33;18.70;99.90
52743;DHT22;55583;53.012;6.556;2022-09-09T18:17:01;18.70;99.90
52743;DHT22;55583;53.012;6.556;2022-09-09T18:19:30;18.60;99.90
52743;DHT22;55583;53.012;6.556;2022-09-09T18:21:56;18.60;99.90
52743;DHT22;55583;53.012;6.556;2022-09-09T18:24:22;18.50;99.90
52743;DHT22;55583;53.012;6.556;2022-09-09T18:26:49;18.50;99.90
52743;DHT22;55583;53.012;6.556;2022-09-09T18:29:19;18.40;99.90
52743;DHT22;55583;53.012;6.556;2022-09-09T18:31:46;18.30;99.90
52743;DHT22;55583;53.012;6.556;2022-09-09T18:34:14;18.20;99.90
52743;DHT22;55583;53.012;6.556;2022-09-09T18:36:43;18.10;99.90
52743;DHT22;55583;53.012;6.556;2022-09-09T18:39:10;18.00;99.90
52743;DHT22;55583;53.012;6.556;2022-09-09T18:41:41;17.90;99.90
52743;DHT22;55583;53.012;6.556;2022-09-09T18:44:13;17.80;99.90
52743;DHT22;55583;53.012;6.556;2022-09-09T18:46:41;17.80;99.90
52743;DHT22;55583;53.012;6.556;2022-09-09T18:49:07;17.80;99.90
52743;DHT22;55583;53.012;6.556;2022-09-09T18:51:33;17.70;99.90
52743;DHT22;55583;53.012;6.556;2022-09-09T18:54:06;17.70;99.90
52743;DHT22;55583;53.012;6.556;2022-09-09T18:56:34;17.70;99.90
52743;DHT22;55583;53.012;6.556;2022-09-09T18:59:02;17.70;99.90
52743;DHT22;55583;53.012;6.556;2022-09-09T19:01:29;17.70;99.90
52743;DHT22;55583;53.012;6.556;2022-09-09T19:03:55;17.70;99.90
52743;DHT22;55583;53.012;6.556;2022-09-09T19:06:27;17.70;99.90
52743;DHT22;55583;53.012;6.556;2022-09-09T19:08:55;17.60;99.90
52743;DHT22;55583;53.012;6.556;2022-09-09T19:11:22;17.60;99.90
52743;DHT22;55583;53.012;6.556;2022-09-09T19:14:09;17.60;99.90
52743;DHT22;55583;53.012;6.556;2022-09-09T19:16:36;17.50;99.90
52743;DHT22;55583;53.012;6.556;2022-09-09T19:19:13;17.70;99.90
52743;DHT22;55583;53.012;6.556;2022-09-09T19:21:40;17.40;99.90
52743;DHT22;55583;53.012;6.556;2022-09-09T19:24:10;17.30;99.90
52743;DHT22;55583;53.012;6.556;2022-09-09T19:26:39;17.30;99.90
52743;DHT22;55583;53.012;6.556;2022-09-09T19:29:07;17.20;99.90
52743;DHT22;55583;53.012;6.556;2022-09-09T19:31:34;17.30;99.90
52743;DHT22;55583;53.012;6.556;2022-09-09T19:34:01;17.10;99.90
52743;DHT22;55583;53.012;6.556;2022-09-09T19:36:27;17.10;99.90
52743;DHT22;55583;53.012;6.556;2022-09-09T19:38:54;17.10;99.90
52743;DHT22;55583;53.012;6.556;2022-09-09T19:41:22;17.00;99.90
52743;DHT22;55583;53.012;6.556;2022-09-09T19:43:48;16.90;99.90
52743;DHT22;55583;53.012;6.556;2022-09-09T19:46:15;16.90;99.90
52743;DHT22;55583;53.012;6.556;2022-09-09T19:48:43;16.80;99.90
52743;DHT22;55583;53.012;6.556;2022-09-09T19:51:17;16.80;99.90
52743;DHT22;55583;53.012;6.556;2022-09-09T19:53:46;16.70;99.90
52743;DHT22;55583;53.012;6.556;2022-09-09T19:56:16;16.70;99.90
52743;DHT22;55583;53.012;6.556;2022-09-09T19:58:44;16.60;99.90
52743;DHT22;55583;53.012;6.556;2022-09-09T20:01:12;16.60;99.90
52743;DHT22;55583;53.012;6.556;2022-09-09T20:03:39;16.60;99.90
52743;DHT22;55583;53.012;6.556;2022-09-09T20:06:10;16.50;99.90
52743;DHT22;55583;53.012;6.556;2022-09-09T20:08:37;16.50;99.90
52743;DHT22;55583;53.012;6.556;2022-09-09T20:11:03;16.50;99.90